Time;durP1;ratioP1;P1;durP2;ratioP2;P2;SDS_P1;SDS_P2;PMS_P1;PMS_P2;Temp;Humidity;BMP_temperature;BMP_pressure;BME280_temperature;BME280_humidity;BME280_pressure;Samples;Min_cycle;Max_cycle;Signal;HPM_P1;HPM_P2
2022/07/11 00:01:06;;;;;;;6.43;1.70;;;;;;;12.75;87.94;99520.00;8426294;28;20075;-76
2022/07/11 00:05:11;;;;;;;3.75;1.98;;;;;;;12.73;87.97;99516.84;8424595;28;20039;-76
2022/07/11 00:09:12;;;;;;;8.13;1.70;;;;;;;12.69;88.20;99513.94;8428217;28;20047;-75
2022/07/11 00:13:13;;;;;;;5.20;1.70;;;;;;;12.64;88.48;99513.25;8409429;28;20048;-75
2022/07/11 00:17:14;;;;;;;6.00;1.70;;;;;;;12.57;88.46;99510.22;8423814;28;20495;-76
2022/07/11 00:21:15;;;;;;;5.57;2.30;;;;;;;12.50;88.92;99501.72;8427115;28;20056;-76
2022/07/11 00:25:16;;;;;;;6.00;1.65;;;;;;;12.46;88.90;99500.75;8425098;28;20071;-76
2022/07/11 00:29:17;;;;;;;6.97;1.90;;;;;;;12.47;89.12;99496.94;8427766;28;20084;-75
2022/07/11 00:33:18;;;;;;;3.03;1.45;;;;;;;12.45;88.91;99499.16;8427400;28;20127;-75
2022/07/11 00:37:19;;;;;;;8.50;1.80;;;;;;;12.47;88.74;99491.53;8421865;28;20518;-76
2022/07/11 00:41:20;;;;;;;3.70;1.80;;;;;;;12.44;88.81;99492.13;8383899;28;20052;-76
2022/07/11 00:45:21;;;;;;;3.97;1.83;;;;;;;12.43;88.72;99490.53;8426292;28;20039;-76
2022/07/11 00:49:22;;;;;;;4.43;1.88;;;;;;;12.38;89.06;99486.06;8419237;28;20078;-75
2022/07/11 00:53:24;;;;;;;6.88;2.00;;;;;;;12.39;89.03;99489.56;8424726;28;20139;-75
2022/07/11 00:57:25;;;;;;;7.18;1.98;;;;;;;12.38;89.12;99487.97;8422198;28;20138;-75
2022/07/11 01:01:26;;;;;;;5.10;1.98;;;;;;;12.35;89.01;99483.19;8392481;28;20049;-75
2022/07/11 01:05:27;;;;;;;6.35;1.75;;;;;;;12.33;89.25;99479.97;8414790;28;20132;-75
2022/07/11 01:09:28;;;;;;;6.43;1.75;;;;;;;12.26;89.40;99475.81;8364356;28;20047;-75
2022/07/11 01:13:32;;;;;;;3.92;1.70;;;;;;;12.17;89.63;99472.25;8387019;28;20058;-76
2022/07/11 01:17:33;;;;;;;5.13;1.52;;;;;;;12.06;89.75;99465.50;8417208;28;20067;-75
2022/07/11 01:21:41;;;;;;;7.93;1.50;;;;;;;11.91;89.90;99473.19;8412223;28;20052;-76
2022/07/11 01:25:42;;;;;;;5.13;1.60;;;;;;;11.78;89.95;99475.69;8345069;28;20072;-75
2022/07/11 01:29:43;;;;;;;8.57;1.70;;;;;;;11.69;90.22;99471.25;8407201;28;20541;-75
2022/07/11 01:33:44;;;;;;;3.53;1.60;;;;;;;11.57;90.45;99473.72;8426276;28;20040;-75
2022/07/11 01:37:45;;;;;;;6.32;1.77;;;;;;;11.51;90.37;99474.94;8426639;28;20051;-75
2022/07/11 01:41:46;;;;;;;11.93;2.47;;;;;;;11.46;90.31;99472.34;8425102;28;20036;-75
2022/07/11 01:45:52;;;;;;;4.07;1.40;;;;;;;11.35;90.09;99471.78;8426222;28;20127;-75
2022/07/11 01:49:53;;;;;;;3.20;1.50;;;;;;;11.23;89.95;99464.19;8419981;28;20131;-75
2022/07/11 01:53:55;;;;;;;7.50;1.70;;;;;;;11.16;89.80;99463.78;8400985;28;20040;-76
2022/07/11 01:57:56;;;;;;;5.28;1.50;;;;;;;11.05;89.57;99465.13;8420949;28;22139;-76
2022/07/11 02:01:58;;;;;;;5.63;1.50;;;;;;;10.95;89.44;99462.63;8418775;28;20048;-76
2022/07/11 02:05:59;;;;;;;7.65;1.55;;;;;;;10.84;89.71;99461.25;8416600;28;20052;-75
2022/07/11 02:10:00;;;;;;;4.75;1.52;;;;;;;10.78;89.13;99467.88;8419479;28;20040;-76
2022/07/11 02:14:02;;;;;;;2.17;1.40;;;;;;;10.67;89.06;99472.66;8401905;28;20140;-75
2022/07/11 02:18:03;;;;;;;5.82;1.73;;;;;;;10.58;89.08;99475.25;8423680;28;20040;-75
2022/07/11 02:22:05;;;;;;;4.72;1.40;;;;;;;10.52;88.78;99470.28;8403507;28;20044;-75
2022/07/11 02:26:06;;;;;;;5.90;1.70;;;;;;;10.45;88.59;99476.06;8425237;28;20097;-76
2022/07/11 02:30:08;;;;;;;6.57;1.58;;;;;;;10.38;88.77;99464.84;8405438;28;20040;-76
2022/07/11 02:34:08;;;;;;;5.22;1.88;;;;;;;10.34;88.84;99474.63;8422884;28;20144;-75
2022/07/11 02:38:10;;;;;;;4.65;1.42;;;;;;;10.28;88.70;99475.81;8416652;28;20044;-75
2022/07/11 02:42:10;;;;;;;6.40;1.67;;;;;;;10.23;88.54;99472.41;8429399;28;20312;-75
2022/07/11 02:46:11;;;;;;;5.60;1.60;;;;;;;10.17;88.56;99479.81;8395706;28;20064;-75
2022/07/11 02:50:13;;;;;;;4.65;1.80;;;;;;;10.09;88.33;99483.16;8422532;28;20109;-75
2022/07/11 02:54:15;;;;;;;5.07;1.77;;;;;;;10.05;88.27;99482.13;8429268;28;20056;-76
2022/07/11 02:58:16;;;;;;;4.47;1.58;;;;;;;9.99;88.16;99477.94;8425264;28;20156;-76
2022/07/11 03:02:17;;;;;;;5.50;1.65;;;;;;;9.93;88.17;99473.72;8385819;28;20045;-75
2022/07/11 03:06:18;;;;;;;9.77;2.63;;;;;;;9.92;88.29;99482.91;8430064;28;20491;-76
2022/07/11 03:10:19;;;;;;;9.57;1.80;;;;;;;9.89;88.10;99480.78;8371166;28;20055;-75
2022/07/11 03:14:20;;;;;;;9.75;1.70;;;;;;;9.88;87.94;99481.91;8426069;28;20499;-75
2022/07/11 03:18:21;;;;;;;4.03;1.70;;;;;;;9.84;87.94;99480.88;8424719;28;20053;-76
2022/07/11 03:22:23;;;;;;;5.13;1.60;;;;;;;9.83;88.02;99479.28;8421151;28;20076;-75
2022/07/11 03:26:24;;;;;;;4.68;1.52;;;;;;;9.84;87.72;99480.88;8423327;28;20566;-75
2022/07/11 03:30:25;;;;;;;4.50;1.92;;;;;;;9.83;87.45;99484.69;8422031;28;20068;-75
2022/07/11 03:34:26;;;;;;;5.38;2.15;;;;;;;9.81;87.78;99486.84;8420174;28;20055;-75
2022/07/11 03:38:27;;;;;;;6.05;1.90;;;;;;;9.81;87.61;99481.47;8424280;28;20385;-75
2022/07/11 03:42:28;;;;;;;8.65;1.63;;;;;;;9.83;87.83;99484.69;8424657;28;20089;-76
2022/07/11 03:46:29;;;;;;;5.65;2.00;;;;;;;9.86;87.72;99484.06;8430014;28;20102;-76
2022/07/11 03:50:30;;;;;;;7.40;2.17;;;;;;;9.95;87.50;99487.69;8391175;28;20056;-77
2022/07/11 03:54:31;;;;;;;7.07;2.10;;;;;;;10.04;87.54;99485.94;8420421;28;20480;-75
2022/07/11 03:58:33;;;;;;;4.43;2.20;;;;;;;10.10;87.36;99484.75;8429919;28;20058;-76
2022/07/11 04:02:34;;;;;;;15.43;2.20;;;;;;;10.19;87.29;99493.81;8373881;28;20388;-75
2022/07/11 04:06:35;;;;;;;6.68;1.95;;;;;;;10.24;87.01;99490.22;8429989;28;20048;-76
2022/07/11 04:10:36;;;;;;;6.00;2.00;;;;;;;10.31;87.37;99491.41;8404321;28;20135;-76
2022/07/11 04:14:37;;;;;;;9.38;2.65;;;;;;;10.41;87.47;99502.06;8411713;28;20040;-75
2022/07/11 04:18:38;;;;;;;8.98;2.20;;;;;;;10.47;87.71;99495.44;8421755;28;20044;-76
2022/07/11 04:22:40;;;;;;;9.13;2.15;;;;;;;10.56;87.77;99509.88;8421530;28;20044;-76
2022/07/11 04:26:40;;;;;;;12.52;2.22;;;;;;;10.66;87.98;99502.69;8428096;28;20044;-76
2022/07/11 04:30:42;;;;;;;12.07;2.17;;;;;;;10.75;87.92;99495.47;8371665;28;20044;-75
2022/07/11 04:34:43;;;;;;;7.05;2.17;;;;;;;10.90;87.93;99503.25;8417589;28;20054;-75
2022/07/11 04:38:44;;;;;;;7.63;2.15;;;;;;;11.02;87.96;99511.69;8427662;28;20534;-76
2022/07/11 04:42:45;;;;;;;7.15;2.22;;;;;;;11.18;87.83;99510.25;8423156;28;20044;-75
2022/07/11 04:46:46;;;;;;;7.47;2.42;;;;;;;11.42;87.37;99510.81;8426755;28;20127;-75
2022/07/11 04:50:47;;;;;;;9.07;2.20;;;;;;;11.65;86.97;99508.94;8422471;28;20419;-74
2022/07/11 04:54:48;;;;;;;8.27;1.95;;;;;;;11.84;86.17;99516.94;8420733;28;20059;-74
2022/07/11 04:58:49;;;;;;;9.75;2.10;;;;;;;11.97;86.03;99516.06;8427484;28;20055;-75
2022/07/11 05:02:50;;;;;;;6.57;2.30;;;;;;;11.96;85.80;99517.16;8426648;28;20032;-74
2022/07/11 05:06:51;;;;;;;10.32;2.35;;;;;;;11.94;86.29;99527.53;8390037;28;20036;-75
2022/07/11 05:10:52;;;;;;;12.20;2.20;;;;;;;11.93;86.56;99531.34;8403185;28;20140;-75
2022/07/11 05:14:55;;;;;;;11.32;1.75;;;;;;;11.96;86.17;99528.00;8427216;28;20044;-75
2022/07/11 05:18:56;;;;;;;8.45;2.75;;;;;;;12.03;85.79;99536.50;8423983;28;20043;-75
2022/07/11 05:22:57;;;;;;;9.85;2.20;;;;;;;12.11;85.23;99527.63;8422826;28;20052;-75
2022/07/11 05:26:58;;;;;;;8.05;2.05;;;;;;;12.20;85.30;99525.78;8383102;28;20051;-76
2022/07/11 05:31:00;;;;;;;13.48;2.25;;;;;;;12.36;84.83;99534.34;8349798;28;20049;-75
2022/07/11 05:35:03;;;;;;;12.77;2.22;;;;;;;12.52;85.06;99538.25;8355313;28;20045;-75
2022/07/11 05:39:04;;;;;;;14.32;2.20;;;;;;;12.65;83.35;99536.53;8322406;28;20523;-75
2022/07/11 05:43:07;;;;;;;16.77;3.80;;;;;;;12.70;83.85;99526.38;8356196;28;20047;-75
2022/07/11 05:47:08;;;;;;;10.77;2.30;;;;;;;12.78;83.75;99529.44;8309912;28;20095;-75
2022/07/11 05:51:09;;;;;;;15.73;2.15;;;;;;;12.88;83.75;99529.97;8355393;28;20094;-76
2022/07/11 05:55:10;;;;;;;12.95;2.30;;;;;;;12.93;83.91;99532.53;8351655;28;20115;-75
2022/07/11 05:59:11;;;;;;;7.10;2.00;;;;;;;13.05;83.66;99529.22;8351258;28;20126;-75
2022/07/11 06:03:12;;;;;;;14.18;2.65;;;;;;;13.17;84.02;99531.34;8357872;28;20049;-76
2022/07/11 06:08:40;;;;;;;11.40;2.33;;;;;;;13.47;82.86;99530.47;8391054;28;20052;-75
2022/07/11 06:11:34;;;;;;;11.07;2.08;;;;;;;13.75;82.24;99530.94;8381888;28;20041;-75
2022/07/11 06:15:36;;;;;;;11.35;2.22;;;;;;;13.91;81.54;99524.72;8369300;28;20040;-75
2022/07/11 06:19:37;;;;;;;13.82;2.17;;;;;;;14.10;81.34;99537.19;8383891;28;20052;-75
2022/07/11 06:23:40;;;;;;;11.52;2.42;;;;;;;14.21;80.78;99543.88;8374139;28;20049;-75
2022/07/11 06:27:40;;;;;;;15.48;2.22;;;;;;;14.31;80.47;99543.53;8398285;28;20112;-75
2022/07/11 06:31:42;;;;;;;13.10;2.00;;;;;;;14.28;80.69;99544.97;8363585;28;20041;-75
2022/07/11 06:35:44;;;;;;;9.20;2.13;;;;;;;14.21;80.51;99554.75;8382604;28;20052;-75
2022/07/11 06:39:45;;;;;;;6.93;1.67;;;;;;;14.14;81.08;99555.22;8372437;28;20077;-76
2022/07/11 06:43:47;;;;;;;11.18;1.73;;;;;;;14.08;81.72;99555.72;8372581;28;20075;-76
2022/07/11 06:47:48;;;;;;;18.35;2.42;;;;;;;13.96;82.61;99565.28;8380486;28;20457;-76
2022/07/11 06:51:49;;;;;;;13.32;2.13;;;;;;;13.92;83.55;99553.47;8414415;28;20052;-76
2022/07/11 06:55:50;;;;;;;14.15;2.22;;;;;;;13.87;84.67;99545.50;8431388;28;20457;-75
2022/07/11 06:59:51;;;;;;;9.32;2.17;;;;;;;13.84;84.89;99529.84;8412800;28;20081;-75
2022/07/11 07:03:53;;;;;;;11.65;1.67;;;;;;;13.83;85.15;99528.25;8425974;28;20040;-75
2022/07/11 07:07:54;;;;;;;9.60;1.95;;;;;;;13.95;85.35;99528.41;8394446;28;20070;-75
2022/07/11 07:11:55;;;;;;;10.82;1.95;;;;;;;14.12;85.30;99562.09;8430337;28;20160;-74
2022/07/11 07:15:59;;;;;;;8.05;1.80;;;;;;;14.14;86.88;99554.44;8430871;28;20047;-76
2022/07/11 07:20:00;;;;;;;12.25;2.00;;;;;;;14.26;87.07;99551.88;8395753;28;20131;-75
2022/07/11 07:24:01;;;;;;;10.98;1.50;;;;;;;14.46;86.04;99556.66;8430797;28;20550;-75
2022/07/11 07:28:04;;;;;;;9.50;1.50;;;;;;;14.66;84.78;99545.06;8427966;28;20040;-76
2022/07/11 07:32:05;;;;;;;4.68;1.50;;;;;;;14.50;82.28;99552.16;8423733;28;20050;-75
2022/07/11 07:36:07;;;;;;;8.05;1.52;;;;;;;14.55;83.32;99560.13;8420827;28;20040;-75
2022/07/11 07:40:08;;;;;;;7.28;1.63;;;;;;;14.57;83.12;99552.47;8429777;28;20040;-75
2022/07/11 07:44:09;;;;;;;12.13;1.48;;;;;;;14.66;82.70;99555.94;8401106;28;20053;-75
2022/07/11 07:48:10;;;;;;;9.65;2.45;;;;;;;14.70;80.08;99551.44;8425760;28;20410;-74
2022/07/11 07:52:11;;;;;;;7.10;1.77;;;;;;;14.75;80.90;99542.34;8421043;28;20056;-75
2022/07/11 07:56:12;;;;;;;5.75;1.48;;;;;;;14.88;80.73;99551.41;8375659;28;20036;-75
2022/07/11 08:04:36;;;;;;;9.48;1.98;;;;;;;15.48;77.49;99532.84;8426516;28;20036;-74
2022/07/11 08:08:37;;;;;;;13.38;1.92;;;;;;;15.60;77.22;99530.22;8423425;28;20048;-75
2022/07/11 08:12:38;;;;;;;7.28;1.95;;;;;;;15.75;75.75;99536.22;8426734;28;20044;-75
2022/07/11 08:16:41;;;;;;;6.60;1.60;;;;;;;15.80;74.17;99538.72;8423508;28;20040;-75
2022/07/11 08:20:41;;;;;;;5.55;1.70;;;;;;;15.81;74.87;99535.66;8428455;28;20040;-75
2022/07/11 08:24:43;;;;;;;14.77;1.90;;;;;;;16.15;73.61;99533.78;8421947;28;20093;-75
2022/07/11 08:28:44;;;;;;;8.63;1.42;;;;;;;16.42;72.44;99525.81;8405032;28;20067;-75
2022/07/11 08:32:45;;;;;;;11.77;2.03;;;;;;;16.37;72.09;99520.56;8427696;28;20143;-75
2022/07/11 08:36:50;;;;;;;8.70;1.42;;;;;;;16.18;71.53;99512.09;8418133;28;20051;-75
2022/07/11 08:40:52;;;;;;;8.55;1.70;;;;;;;16.09;72.56;99521.47;8428258;28;20044;-76
2022/07/11 08:44:55;;;;;;;7.57;1.45;;;;;;;15.97;73.31;99512.13;8423025;28;20048;-76
2022/07/11 08:48:57;;;;;;;8.23;1.60;;;;;;;16.08;72.49;99512.50;8426682;28;20060;-76
2022/07/11 08:52:59;;;;;;;5.60;1.45;;;;;;;16.62;71.39;99504.28;8381805;28;20052;-75
2022/07/11 08:57:01;;;;;;;6.80;1.10;;;;;;;17.22;69.37;99507.03;8386049;28;20048;-76
2022/07/11 09:01:03;;;;;;;2.63;1.00;;;;;;;17.60;68.67;99494.94;8387065;28;20043;-75
2022/07/11 09:05:07;;;;;;;9.13;1.05;;;;;;;18.15;67.27;99499.63;8383057;28;20050;-76
2022/07/11 09:09:08;;;;;;;7.93;1.50;;;;;;;18.10;65.87;99503.41;8383552;28;20075;-75
2022/07/11 09:13:15;;;;;;;5.68;1.25;;;;;;;17.74;66.48;99500.81;8387691;28;20055;-74
2022/07/11 09:17:24;;;;;;;7.13;1.23;;;;;;;17.60;65.81;99494.94;8386819;28;20045;-75
2022/07/11 09:25:44;;;;;;;6.57;1.20;;;;;;;17.80;65.30;99499.44;8387030;28;20044;-76
2022/07/11 09:29:46;;;;;;;7.05;0.82;;;;;;;17.93;64.52;99492.75;8386569;28;20045;-75
2022/07/11 09:34:04;;;;;;;5.85;1.23;;;;;;;17.67;64.38;99495.13;8389984;28;20041;-75
2022/07/11 09:38:10;;;;;;;5.07;1.20;;;;;;;17.25;65.56;99503.59;8390260;28;20049;-75
2022/07/11 09:42:11;;;;;;;8.90;1.23;;;;;;;16.96;66.69;99503.88;8388751;28;20055;-75
2022/07/11 09:46:12;;;;;;;10.05;1.20;;;;;;;16.82;67.78;99511.56;8387378;28;20057;-75
2022/07/11 09:50:18;;;;;;;4.80;1.05;;;;;;;16.96;69.20;99498.41;8389305;28;20058;-75
2022/07/11 09:54:19;;;;;;;10.93;2.00;;;;;;;17.13;67.91;99498.16;8426337;28;20093;-76
2022/07/11 09:58:23;;;;;;;7.82;1.23;;;;;;;17.28;66.65;99489.28;8399672;28;20511;-75
2022/07/11 10:02:25;;;;;;;8.55;1.00;;;;;;;17.87;65.36;99485.94;8422800;28;20450;-77
2022/07/11 10:06:26;;;;;;;3.25;0.98;;;;;;;18.49;62.46;99473.56;8428342;28;20048;-77
2022/07/11 10:10:30;;;;;;;5.90;0.90;;;;;;;18.92;61.70;99467.25;8413628;28;20049;-76
2022/07/11 10:14:31;;;;;;;5.20;0.80;;;;;;;19.26;59.72;99471.13;8425930;28;20044;-75
2022/07/11 10:18:57;;;;;;;7.53;1.05;;;;;;;19.54;58.64;99469.06;8413058;28;20415;-74
2022/07/11 10:23:05;;;;;;;1.33;0.63;;;;;;;19.68;56.33;99477.56;8412135;28;20082;-74
2022/07/11 10:27:21;;;;;;;3.70;0.88;;;;;;;19.75;55.69;99487.88;8421089;28;20499;-75
2022/07/11 10:31:23;;;;;;;9.38;1.20;;;;;;;19.98;56.40;99490.69;8406712;28;21207;-75
2022/07/11 10:35:29;;;;;;;6.63;0.70;;;;;;;19.81;55.04;99492.72;8415610;28;20044;-75
2022/07/11 10:39:32;;;;;;;3.10;0.90;;;;;;;19.26;56.51;99487.56;8421163;28;20051;-74
2022/07/11 10:43:38;;;;;;;1.95;0.65;;;;;;;19.05;56.01;99487.06;8425281;28;20068;-73
2022/07/11 10:47:44;;;;;;;4.50;0.93;;;;;;;18.82;56.85;99489.66;8422409;28;20291;-75
2022/07/11 10:51:59;;;;;;;4.70;0.60;;;;;;;18.76;57.63;99491.88;8420986;28;20423;-76
2022/07/11 10:56:07;;;;;;;6.70;1.02;;;;;;;18.57;59.62;99510.91;8403975;28;20052;-74
2022/07/11 11:00:15;;;;;;;9.82;0.93;;;;;;;17.99;63.12;99513.25;8409117;28;20735;-74
2022/07/11 11:04:49;;;;;;;4.35;1.13;;;;;;;17.27;67.03;99531.38;8428730;28;20048;-75
2022/07/11 11:08:50;;;;;;;4.70;1.10;;;;;;;16.90;70.18;99532.50;8414088;28;20193;-75
2022/07/11 11:13:06;;;;;;;5.38;0.90;;;;;;;16.52;72.43;99537.41;8417700;28;20185;-75
2022/07/11 11:17:36;;;;;;;5.15;1.33;;;;;;;16.41;74.07;99551.47;8416414;28;20136;-75
2022/07/11 11:21:38;;;;;;;2.33;0.90;;;;;;;16.50;74.50;99547.88;8409840;28;20119;-75
2022/07/11 11:25:40;;;;;;;3.28;1.20;;;;;;;16.54;75.47;99546.06;8388596;28;20055;-75
2022/07/11 11:29:42;;;;;;;3.97;1.00;;;;;;;16.50;75.94;99553.31;8412280;28;20117;-75
2022/07/11 11:33:47;;;;;;;3.42;1.00;;;;;;;16.42;76.99;99572.16;8403794;28;20052;-75
2022/07/11 11:37:48;;;;;;;6.20;1.00;;;;;;;16.20;78.69;99575.25;8406572;28;20048;-76
2022/07/11 11:41:50;;;;;;;3.40;1.05;;;;;;;16.05;79.51;99579.38;8420745;28;20135;-75
2022/07/11 11:45:53;;;;;;;2.85;1.00;;;;;;;16.05;79.82;99575.84;8408424;28;20067;-75
2022/07/11 11:49:55;;;;;;;5.55;1.00;;;;;;;15.99;80.17;99585.34;8421374;28;21035;-75
2022/07/11 11:53:57;;;;;;;2.45;1.10;;;;;;;15.94;80.70;99580.09;8418314;28;20066;-75
2022/07/11 11:57:59;;;;;;;3.17;1.05;;;;;;;15.87;81.51;99593.44;8362958;28;20056;-75
2022/07/11 12:02:01;;;;;;;4.82;1.05;;;;;;;15.88;81.64;99589.59;8407006;28;20496;-75
2022/07/11 12:06:03;;;;;;;4.22;1.00;;;;;;;15.78;81.73;99579.09;8368638;28;20055;-77
2022/07/11 12:10:05;;;;;;;4.40;1.02;;;;;;;15.79;81.88;99586.16;8402886;28;20074;-77
2022/07/11 12:14:11;;;;;;;6.25;0.82;;;;;;;15.67;82.20;99594.22;8415862;28;20131;-75
2022/07/11 12:18:13;;;;;;;1.83;0.80;;;;;;;15.71;82.54;99616.94;8416548;28;20048;-75
2022/07/11 12:22:15;;;;;;;3.33;0.80;;;;;;;15.65;81.67;99618.28;8375678;28;20051;-75
2022/07/11 12:26:16;;;;;;;3.70;0.70;;;;;;;15.57;81.71;99600.88;8389821;28;20056;-75
2022/07/11 12:30:23;;;;;;;2.72;0.70;;;;;;;15.41;82.40;99581.56;8408793;28;20414;-77
2022/07/11 12:34:42;;;;;;;2.25;0.77;;;;;;;15.50;82.66;99571.41;8394682;28;20566;-75
2022/07/11 12:38:53;;;;;;;4.38;0.88;;;;;;;15.56;82.48;99581.00;8368584;28;20082;-75
2022/07/11 12:42:55;;;;;;;2.53;0.80;;;;;;;15.61;82.34;99601.78;8373441;28;20036;-75
2022/07/11 12:47:04;;;;;;;3.42;0.63;;;;;;;15.69;82.41;99624.66;8405028;28;20048;-76
2022/07/11 12:51:05;;;;;;;3.53;0.82;;;;;;;15.53;83.18;99666.06;8383770;28;20047;-76
2022/07/11 12:55:11;;;;;;;3.05;0.80;;;;;;;15.46;85.02;99660.28;8386973;28;20047;-75
2022/07/11 12:59:20;;;;;;;3.67;0.70;;;;;;;15.40;85.68;99656.16;8401921;28;20097;-76
2022/07/11 13:03:32;;;;;;;2.38;0.73;;;;;;;15.36;86.15;99660.66;8408104;28;20078;-76
2022/07/11 13:11:55;;;;;;;6.22;0.98;;;;;;;15.92;84.63;99650.44;8414466;28;20056;-76
2022/07/11 13:15:56;;;;;;;10.45;1.63;;;;;;;15.94;84.10;99637.31;8367296;28;20060;-75
2022/07/11 13:19:58;;;;;;;4.50;1.10;;;;;;;15.80;84.74;99631.31;8419231;28;20535;-75
2022/07/11 13:23:59;;;;;;;4.55;0.80;;;;;;;15.65;85.20;99623.72;8422824;28;20488;-74
2022/07/11 13:28:01;;;;;;;2.63;1.00;;;;;;;15.73;85.04;99620.16;8424484;28;20051;-75
2022/07/11 13:32:02;;;;;;;2.55;0.90;;;;;;;16.04;84.67;99606.94;8422458;28;20044;-74
2022/07/11 13:36:03;;;;;;;4.03;0.93;;;;;;;16.74;83.37;99605.22;8419424;28;20127;-74
2022/07/11 13:40:05;;;;;;;3.90;0.70;;;;;;;17.64;79.43;99599.63;8423082;28;20051;-76
2022/07/11 13:44:07;;;;;;;1.45;0.70;;;;;;;19.33;73.15;99591.78;8377437;28;20541;-75
2022/07/11 13:48:08;;;;;;;2.80;0.70;;;;;;;20.65;67.60;99586.06;8403869;28;20048;-75
2022/07/11 13:52:11;;;;;;;1.65;0.65;;;;;;;22.18;63.51;99583.75;8411712;28;20052;-75
2022/07/11 13:56:12;;;;;;;1.65;0.50;;;;;;;23.53;60.20;99574.84;8421901;28;20518;-75
2022/07/11 14:00:13;;;;;;;0.88;0.68;;;;;;;24.72;56.73;99573.03;8427285;28;20543;-75
2022/07/11 14:04:14;;;;;;;2.83;0.50;;;;;;;24.93;52.42;99582.56;8425850;28;20055;-73
2022/07/11 14:08:35;;;;;;;4.30;0.57;;;;;;;25.59;53.68;99592.81;8419127;28;20454;-75
2022/07/11 14:12:37;;;;;;;2.28;0.38;;;;;;;26.06;50.72;99596.28;8323034;28;20050;-74
2022/07/11 14:16:38;;;;;;;1.83;0.77;;;;;;;24.89;54.04;99598.34;8306800;28;20046;-74
2022/07/11 14:20:39;;;;;;;2.72;0.40;;;;;;;26.08;48.68;99591.13;8322772;28;20539;-74
2022/07/11 14:24:40;;;;;;;1.00;0.40;;;;;;;26.87;46.41;99595.13;8319688;28;20056;-76
2022/07/11 14:28:41;;;;;;;2.28;0.57;;;;;;;26.20;47.52;99604.53;8321882;28;20504;-76
2022/07/11 14:32:42;;;;;;;2.05;0.65;;;;;;;23.37;53.55;99603.88;8323702;28;20100;-76
2022/07/11 14:36:43;;;;;;;2.80;0.60;;;;;;;21.94;58.39;99606.25;8307945;28;20049;-76
2022/07/11 14:40:44;;;;;;;3.65;0.52;;;;;;;20.88;61.26;99596.28;8294066;28;20042;-76
2022/07/11 14:44:51;;;;;;;7.78;0.57;;;;;;;20.23;64.10;99624.38;8405264;28;20137;-76
2022/07/11 14:48:54;;;;;;;1.42;0.30;;;;;;;19.38;66.06;99610.69;8380596;28;20043;-76
2022/07/11 14:52:58;;;;;;;2.15;0.30;;;;;;;18.74;66.22;99625.50;8422952;28;20085;-76
2022/07/11 14:56:59;;;;;;;1.38;0.40;;;;;;;18.38;67.80;99633.81;8423278;28;20072;-78
2022/07/11 15:01:00;;;;;;;1.95;0.50;;;;;;;18.17;69.68;99627.75;8432128;28;20047;-78
2022/07/11 15:05:01;;;;;;;2.67;0.40;;;;;;;17.92;71.18;99638.75;8378821;28;20538;-76
2022/07/11 15:13:22;;;;;;;0.82;0.47;;;;;;;18.50;70.79;99615.44;8397591;28;20052;-75
2022/07/11 15:17:23;;;;;;;5.15;0.50;;;;;;;20.61;66.68;99618.13;8431523;28;20502;-75
2022/07/11 15:21:25;;;;;;;2.42;0.43;;;;;;;22.26;62.35;99629.44;8427900;28;20514;-75
2022/07/11 15:25:25;;;;;;;0.38;0.30;;;;;;;22.76;58.65;99623.75;8419835;28;20036;-76
2022/07/11 15:29:27;;;;;;;1.08;0.40;;;;;;;24.64;52.76;99620.38;8423406;28;20411;-78
2022/07/11 15:33:28;;;;;;;0.82;0.20;;;;;;;26.62;47.86;99619.41;8416000;28;20265;-78
2022/07/11 15:37:29;;;;;;;0.77;0.38;;;;;;;27.99;45.59;99614.75;8420393;28;20515;-76
2022/07/11 15:41:30;;;;;;;1.63;0.38;;;;;;;28.63;42.80;99611.22;8410154;28;20048;-77
2022/07/11 15:45:31;;;;;;;1.90;0.50;;;;;;;27.27;44.45;99622.19;8420512;28;20484;-77
2022/07/11 15:49:32;;;;;;;3.25;0.60;;;;;;;25.58;47.85;99618.94;8408039;28;21112;-75
2022/07/11 15:53:33;;;;;;;3.85;0.98;;;;;;;24.80;49.19;99618.81;8407263;28;20051;-76
2022/07/11 15:57:34;;;;;;;4.13;0.55;;;;;;;24.52;50.26;99617.97;8421811;28;20046;-78
2022/07/11 16:01:36;;;;;;;3.15;1.45;;;;;;;23.28;53.73;99617.16;8410515;28;20044;-77
2022/07/11 16:05:37;;;;;;;2.22;0.75;;;;;;;22.46;56.28;99626.53;8350317;28;20052;-75
2022/07/11 16:09:38;;;;;;;2.70;0.70;;;;;;;21.81;57.96;99635.09;8354015;28;20049;-76
2022/07/11 16:13:39;;;;;;;2.83;0.90;;;;;;;21.21;60.17;99636.88;8315333;28;20053;-75
2022/07/11 16:17:41;;;;;;;5.30;0.80;;;;;;;20.79;62.05;99645.91;8348561;28;20049;-75
2022/07/11 16:21:42;;;;;;;1.23;0.63;;;;;;;20.43;63.60;99647.16;8356885;28;20502;-75
2022/07/11 16:25:44;;;;;;;2.67;0.75;;;;;;;20.07;64.45;99653.03;8304009;28;20049;-75
2022/07/11 16:29:45;;;;;;;3.22;0.60;;;;;;;19.77;65.73;99645.28;8356513;28;20068;-75
2022/07/11 16:33:48;;;;;;;3.10;0.90;;;;;;;19.50;67.61;99653.66;8344503;28;20049;-75
2022/07/11 16:37:50;;;;;;;3.38;0.88;;;;;;;19.34;68.67;99632.53;8316602;28;20055;-75
2022/07/11 16:46:24;;;;;;;6.40;0.90;;;;;;;18.97;69.53;99622.97;8271031;28;20042;-74
2022/07/11 16:50:28;;;;;;;3.83;1.10;;;;;;;18.84;70.84;99641.38;8283098;28;20145;-74
2022/07/11 16:54:30;;;;;;;2.42;1.00;;;;;;;18.62;71.11;99655.63;8283274;28;20054;-75
2022/07/11 16:58:32;;;;;;;1.83;0.90;;;;;;;18.47;71.79;99650.88;8287105;28;20080;-75
2022/07/11 17:02:33;;;;;;;3.53;1.13;;;;;;;18.34;72.12;99660.28;8275096;28;20398;-75
2022/07/11 17:06:37;;;;;;;2.00;1.00;;;;;;;18.16;72.58;99670.69;8287189;28;20478;-74
2022/07/11 17:10:39;;;;;;;7.50;1.10;;;;;;;17.96;73.38;99661.50;8251150;28;20042;-74
2022/07/11 17:14:41;;;;;;;1.45;0.90;;;;;;;17.95;73.84;99687.22;8281202;28;20189;-74
2022/07/11 17:18:42;;;;;;;2.45;0.77;;;;;;;17.76;73.97;99678.84;8293555;28;20417;-74
2022/07/11 17:22:43;;;;;;;3.78;1.08;;;;;;;17.78;74.27;99675.75;8346238;28;20052;-74
2022/07/11 17:26:44;;;;;;;0.95;0.70;;;;;;;17.73;74.30;99674.84;8425763;28;20574;-73
2022/07/11 17:30:48;;;;;;;1.58;0.82;;;;;;;17.67;74.48;99669.94;8409095;28;20062;-73
2022/07/11 17:34:49;;;;;;;1.10;0.88;;;;;;;17.59;75.10;99668.94;8425509;28;20047;-74
2022/07/11 17:38:52;;;;;;;3.10;1.08;;;;;;;17.54;75.10;99668.31;8426401;28;20056;-74
2022/07/11 17:42:53;;;;;;;2.83;0.98;;;;;;;17.53;75.02;99658.53;8418442;28;20048;-74
2022/07/11 17:46:54;;;;;;;1.45;0.63;;;;;;;17.41;75.67;99661.25;8380106;28;20093;-75
2022/07/11 17:50:55;;;;;;;2.35;0.88;;;;;;;17.29;75.78;99673.75;8414426;28;20101;-75
2022/07/11 17:54:56;;;;;;;3.85;0.98;;;;;;;17.15;76.58;99681.47;8423251;28;20467;-74
2022/07/11 17:58:57;;;;;;;5.63;0.80;;;;;;;17.13;77.48;99678.28;8414754;28;20037;-74
2022/07/11 18:02:59;;;;;;;4.25;0.82;;;;;;;16.97;78.31;99668.38;8418342;28;20040;-74
2022/07/11 18:07:00;;;;;;;4.07;0.90;;;;;;;16.82;79.36;99667.03;8424208;28;20044;-74
2022/07/11 18:11:01;;;;;;;3.08;0.70;;;;;;;16.85;79.66;99666.38;8424667;28;20059;-74
2022/07/11 18:15:05;;;;;;;2.17;0.88;;;;;;;16.76;79.81;99663.72;8388864;28;20143;-73
2022/07/11 18:19:07;;;;;;;4.30;1.38;;;;;;;16.50;81.43;99665.09;8426142;28;20039;-74
2022/07/11 18:23:08;;;;;;;6.18;1.60;;;;;;;16.38;81.59;99672.09;8430229;28;20051;-74
2022/07/11 18:27:10;;;;;;;9.95;3.25;;;;;;;16.30;82.02;99681.13;8418118;28;20040;-74
2022/07/11 18:31:11;;;;;;;5.60;1.85;;;;;;;16.23;82.19;99678.13;8430328;28;20075;-75
2022/07/11 18:35:12;;;;;;;3.42;1.40;;;;;;;16.20;82.25;99667.88;8427654;28;20068;-74
2022/07/11 18:43:58;;;;;;;3.55;1.13;;;;;;;16.02;81.73;99660.97;8428893;28;20052;-75
2022/07/11 18:47:54;;;;;;;4.25;0.90;;;;;;;15.89;81.74;99678.34;8417849;28;20105;-74
2022/07/11 18:51:59;;;;;;;2.22;0.43;;;;;;;15.77;82.05;99709.00;8377935;28;20109;-75
2022/07/11 18:56:00;;;;;;;4.90;0.80;;;;;;;15.75;82.07;99713.22;8376615;28;20076;-74
2022/07/11 19:00:32;;;;;;;0.77;0.60;;;;;;;15.68;83.25;99699.28;8371317;28;20048;-75
2022/07/11 19:04:35;;;;;;;3.25;1.02;;;;;;;15.58;84.45;99678.69;8383585;28;20048;-75
2022/07/11 19:08:36;;;;;;;7.05;1.40;;;;;;;15.55;84.15;99682.84;8347092;28;20048;-74
2022/07/11 19:12:37;;;;;;;4.43;1.10;;;;;;;15.45;84.52;99680.47;8386975;28;20089;-73
2022/07/11 19:16:47;;;;;;;1.27;1.00;;;;;;;15.33;84.86;99688.53;8377001;28;20056;-74
2022/07/11 19:20:51;;;;;;;3.70;1.23;;;;;;;15.16;85.31;99694.03;8315158;28;20049;-75
2022/07/11 19:24:54;;;;;;;7.68;1.48;;;;;;;15.12;85.71;99693.09;8369500;28;20110;-74